Latest Coastal Weather Observations for Geelong Racecourse

IDV60701

Issued at 7:11 pm EST Wednesday 25 May 2016 (issued every 10 minutes, with the page automatically refreshed every 10 minutes)

About coastal observations | Map of coastal stations | Coastal observations for VIC | Marine services | Other Formats
Station Details ID: 087184 Name: GEELONG RACECOURSE Lat: -38.17 Lon: 144.38 Height: 12.9 m
Data from the previous 72 hours. | See also: Recent months at Geelong Racecourse
Date/Time
EST
Temp

°C
Wind Pressure Rain
since 9am
mm
Weather Cloud Vis
km
Sea
Height
m
Swell
Dir
 
Speed
knots
Gust
knots
hPa Trend Height
m
Period
s
Dir
25/07:00pm 11.6 N 6 11 1008.2 - 4.6 - - - - - - -
25/06:30pm 11.5 N 5 7 1008.2 - 4.2 - - - - - - -
25/06:00pm 11.9 N 6 9 1008.6 - 4.0 Rain - - - - - -
25/05:30pm 11.9 NNW 4 7 1008.6 - 3.8 - - - - - - -
25/05:00pm 11.8 NNE 3 4 1008.5 - 3.8 - - - - - - -
25/04:30pm 11.9 NE 3 5 1009.0 - 3.0 - - - - - - -
25/04:00pm 12.1 NNE 5 7 1009.0 - 2.0 - - - - - - -
25/03:30pm 12.3 NNE 6 9 1009.1 - 1.4 - - - - - - -
25/03:00pm 12.6 NE 6 10 1009.2 - 1.0 Recent precip. - - - - - -
25/02:30pm 13.1 NNE 6 8 1009.4 - 0.8 - - - - - - -
25/02:00pm 13.8 NNE 6 9 1009.4 - 0.4 - - - - - - -
25/01:30pm 16.0 N 10 16 1009.5 - 0.0 - - - - - - -
25/01:00pm 16.8 NNW 13 22 1009.4 - 0.0 - - - - - - -
25/12:30pm 16.8 N 9 15 1010.1 - 0.0 - - - - - - -
25/12:00pm 16.9 N 9 13 1010.6 - 0.0 - - - - - - -
25/11:30am 16.0 N 7 9 1011.2 - 0.0 - - - - - - -
25/11:00am 14.9 N 6 10 1012.1 - 0.0 - - - - - - -
25/10:30am 13.3 NE 4 7 1012.7 - 0.0 - - - - - - -
25/10:00am 12.7 NE 6 9 1013.0 - 0.0 - - - - - - -
25/09:30am 12.4 NNE 7 9 1013.5 - 0.0 - - - - - - -
25/09:00am 11.8 NNE 4 8 1013.9 - 0.0 - - - - - - -
25/08:30am 10.6 NNE 3 4 1014.1 - 0.0 - - - - - - -
25/08:00am 10.2 NE 3 4 1014.2 - 0.0 - - - - - - -
25/07:30am 9.5 NE 3 4 1014.2 - 0.0 - - - - - - -
25/07:00am 9.5 NNE 4 5 1014.4 - 0.0 - - - - - - -
25/06:30am 9.4 NNE 4 7 1014.5 - 0.0 - - - - - - -
25/06:00am 9.1 NNE 3 5 1014.6 - 0.0 - - - - - - -
25/05:30am 8.7 NNE 4 5 1014.6 - 0.0 - - - - - - -
25/05:00am 7.7 NNE 2 3 1014.8 - 0.0 - - - - - - -
25/04:30am 7.0 N 3 3 1015.0 - 0.0 - - - - - - -
25/04:00am 7.9 N 3 4 1015.0 - 0.0 - - - - - - -
25/03:30am 8.1 N 3 4 1015.4 - 0.0 - - - - - - -
25/03:00am 7.8 N 3 4 1016.1 - 0.0 - - - - - - -
25/02:30am 7.9 NNW 2 4 1016.4 - 0.0 - - - - - - -
25/02:00am 8.2 N 2 3 1016.6 - 0.0 - - - - - - -
25/01:30am 8.5 NNW 3 3 1016.8 - 0.0 - - - - - - -
25/01:00am 7.9 NW 3 3 1017.1 - 0.0 - - - - - - -
25/12:30am 7.8 NNW 3 3 1017.5 - 0.0 - - - - - - -
25/12:00am 7.1 N 1 2 1017.7 - 0.0 - - - - - - -
 
Date/Time
EST
Temp

°C
Wind Pressure Rain
since 9am
mm
Weather Cloud Vis
km
Sea
Height
m
Swell
Dir
 
Speed
knots
Gust
knots
hPa Trend Height
m
Period
s
Dir
24/11:30pm 7.1 CALM 0 0 1018.0 - 0.0 - - - - - - -
24/11:00pm 7.5 CALM 0 0 1017.8 - 0.0 - - - - - - -
24/10:30pm 8.0 CALM 0 0 1018.3 - 0.0 - - - - - - -
24/10:00pm 8.1 N 1 2 1018.7 - 0.0 - - - - - - -
24/09:30pm 8.7 NNW 2 3 1018.8 - 0.0 - - - - - - -
24/09:00pm 8.3 NW 2 3 1019.3 - 0.0 - - - - - - -
24/08:30pm 8.4 WNW 2 4 1019.6 - 0.0 - - - - - - -
24/08:00pm 8.5 WNW 2 3 1019.4 - 0.0 - - - - - - -
24/07:30pm 8.9 CALM 0 0 1019.5 - 0.0 - - - - - - -
24/07:00pm 9.8 CALM 0 0 1019.5 - 0.0 - - - - - - -
24/06:30pm 10.7 WNW 1 1 1019.5 - 0.0 - - - - - - -
24/06:00pm 11.9 WNW 1 1 1019.4 - 0.0 - - - - - - -
24/05:30pm 12.8 NW 3 3 1019.1 - 0.0 - - - - - - -
24/05:00pm 13.5 WNW 3 5 1018.8 - 0.0 - - - - - - -
24/04:30pm 14.1 W 4 7 1019.0 - 0.0 - - - - - - -
24/04:00pm 14.3 W 6 10 1019.1 - 0.0 - - - - - - -
24/03:30pm 14.5 WNW 7 10 1019.1 - 0.0 - - - - - - -
24/03:00pm 15.3 W 8 12 1019.0 - 0.0 - - - - - - -
24/02:30pm 14.5 W 7 11 1019.1 - 0.0 - - - - - - -
24/02:00pm 14.6 W 8 13 1019.3 - 0.0 - - - - - - -
24/01:30pm 14.9 W 8 11 1019.5 - 0.0 - - - - - - -
24/01:00pm 14.4 WSW 7 12 1019.6 - 0.0 - - - - - - -
24/12:30pm 14.4 W 8 13 1019.8 - 0.0 - - - - - - -
24/12:00pm 14.7 W 8 12 1020.2 - 0.0 - - - - - - -
24/11:30am 14.0 W 8 12 1020.7 - 0.0 - - - - - - -
24/11:00am 13.4 W 7 13 1021.2 - 0.0 - - - - - - -
24/10:30am 13.2 W 7 11 1021.3 - 0.0 - - - - - - -
24/10:00am 12.5 WNW 5 9 1021.1 - 0.0 - - - - - - -
24/09:30am 11.7 W 7 11 1021.3 - 0.0 - - - - - - -
24/09:00am 11.0 WNW 7 11 1020.8 - 1.2 - - - - - - -
24/08:30am 10.0 WNW 8 11 1020.7 - 1.2 - - - - - - -
24/08:00am 9.5 WNW 7 11 1020.4 - 1.2 - - - - - - -
24/07:30am 9.5 WNW 8 11 1020.1 - 1.2 - - - - - - -
24/07:00am 9.5 WNW 7 12 1019.8 - 1.2 - - - - - - -
24/06:30am 9.5 WNW 5 9 1019.6 - 1.2 - - - - - - -
24/06:00am 9.5 WNW 5 8 1019.5 - 1.2 - - - - - - -
24/05:30am 9.7 W 5 7 1019.5 - 1.2 - - - - - - -
24/05:00am 9.9 WNW 7 11 1019.0 - 1.2 - - - - - - -
24/04:30am 9.4 NW 6 9 1018.8 - 1.2 - - - - - - -
24/04:00am 9.3 NW 4 5 1018.9 - 1.0 - - - - - - -
24/03:30am 10.0 WNW 4 7 1019.0 - 1.0 - - - - - - -
24/03:00am 10.2 WNW 6 10 1018.8 - 1.0 - - - - - - -
24/02:30am 10.3 WNW 5 9 1018.9 - 1.0 - - - - - - -
24/02:00am 10.7 W 6 9 1018.9 - 1.0 - - - - - - -
24/01:30am 10.3 WNW 6 8 1018.7 - 1.0 - - - - - - -
24/01:00am 10.6 WNW 8 12 1018.8 - 1.0 - - - - - - -
24/12:30am 10.3 WNW 7 13 1019.1 - 1.0 - - - - - - -
24/12:00am 10.5 WNW 8 12 1019.2 - 1.0 - - - - - - -
 
Date/Time
EST
Temp

°C
Wind Pressure Rain
since 9am
mm
Weather Cloud Vis
km
Sea
Height
m
Swell
Dir
 
Speed
knots
Gust
knots
hPa Trend Height
m
Period
s
Dir
23/11:30pm 10.3 WNW 7 12 1019.3 - 1.0 - - - - - - -
23/11:00pm 10.0 WNW 6 9 1019.2 - 1.0 - - - - - - -
23/10:30pm 10.0 WNW 5 7 1019.2 - 1.0 - - - - - - -
23/10:00pm 9.7 WNW 3 4 1019.2 - 1.0 - - - - - - -
23/09:30pm 9.9 W 4 5 1019.2 - 1.0 - - - - - - -
23/09:00pm 9.7 WSW 3 6 1019.2 - 1.0 - - - - - - -
23/08:30pm 10.3 WNW 2 3 1019.0 - 1.0 - - - - - - -
23/08:00pm 11.1 NW 4 6 1018.8 - 1.0 - - - - - - -
23/07:30pm 11.2 NW 3 5 1018.7 - 1.0 - - - - - - -
23/07:00pm 11.2 NW 3 5 1018.6 - 1.0 - - - - - - -
23/06:30pm 11.1 NW 3 4 1018.3 - 1.0 - - - - - - -
23/06:00pm 11.2 WNW 2 4 1018.1 - 1.0 Recent precip. - - - - - -
23/05:30pm 11.3 W 2 3 1017.9 - 0.8 - - - - - - -
23/05:00pm 11.7 W 4 7 1017.7 - 0.6 - - - - - - -
23/04:30pm 11.7 WNW 5 8 1017.6 - 0.6 - - - - - - -
23/04:00pm 11.4 W 7 12 1017.6 - 0.6 - - - - - - -
23/03:30pm 11.2 W 9 15 1017.7 - 0.6 - - - - - - -
23/03:00pm 11.3 WSW 10 16 1017.4 - 0.6 Recent precip. - - - - - -
23/02:30pm 12.2 WSW 14 22 1017.4 - 0.0 - - - - - - -
23/02:00pm 14.4 WNW 13 21 1016.7 - 0.0 - - - - - - -
23/01:31pm 15.6 WNW 15 26 1016.7 - 0.0 - - - - - - -
23/01:30pm 15.6 WNW 15 23 1016.8 - 0.0 - - - - - - -
23/01:01pm 14.6 WNW 16 26 1017.0 - 0.0 - - - - - - -
23/01:00pm 14.5 W 15 24 1017.1 - 0.0 - - - - - - -
23/12:30pm 15.1 WNW 15 23 1016.9 - 0.0 - - - - - - -
23/12:11pm 14.4 WNW 16 26 1016.9 - 0.0 - - - - - - -
23/12:00pm 14.6 WNW 14 24 1016.9 - 0.0 - - - - - - -
23/11:30am 14.6 W 14 21 1016.9 - 0.0 - - - - - - -
23/11:00am 14.0 W 14 23 1017.1 - 0.0 - - - - - - -
23/10:39am 13.4 WNW 15 26 1017.1 - 0.0 - - - - - - -
23/10:30am 13.3 WNW 14 24 1017.1 - 0.0 - - - - - - -
23/10:00am 12.6 WNW 13 26 1016.8 - 0.0 - - - - - - -
23/09:30am 12.1 WNW 12 18 1016.2 - 0.0 - - - - - - -
23/09:00am 11.6 WNW 11 19 1015.9 - 2.0 Recent precip. - - - - - -
23/08:30am 10.9 WNW 11 18 1015.4 - 1.8 - - - - - - -
23/08:00am 10.7 WNW 13 19 1015.0 - 1.8 - - - - - - -
23/07:30am 10.8 WNW 12 22 1014.1 - 1.8 - - - - - - -
23/07:00am 11.4 WNW 17 29 1012.9 - 1.8 - - - - - - -
23/06:30am 12.1 WNW 18 32 1012.2 - 1.8 - - - - - - -
23/06:00am 12.3 NW 17 30 1011.6 - 1.8 - - - - - - -
23/05:44am 12.4 WNW 15 26 1011.7 - 1.8 - - - - - - -
23/05:30am 12.1 WNW 14 21 1011.7 - 1.8 - - - - - - -
23/05:06am 12.4 WNW 15 27 1011.4 - 1.8 - - - - - - -
23/05:00am 12.4 WNW 14 23 1011.3 - 1.8 - - - - - - -
23/04:30am 12.5 NW 12 19 1010.9 - 1.8 - - - - - - -
23/04:00am 12.7 WNW 16 28 1010.8 - 1.8 - - - - - - -
23/03:45am 13.6 WNW 15 27 1010.5 - 1.8 - - - - - - -
23/03:30am 13.0 WNW 9 14 1010.2 - 1.8 - - - - - - -
23/03:00am 12.9 NW 6 10 1010.4 - 1.8 Recent precip. - - - - - -
23/02:30am 12.9 NW 9 13 1010.1 - 1.8 - - - - - - -
23/02:00am 13.1 WNW 10 18 1010.1 - 1.6 - - - - - - -
23/01:30am 13.5 WNW 11 18 1010.4 - 1.2 - - - - - - -
23/01:00am 13.9 WNW 18 31 1010.4 - 1.0 - - - - - - -
23/12:47am 16.0 NW 15 30 1010.5 - 0.4 - - - - - - -
23/12:30am 17.9 NNW 12 21 1009.6 - 0.2 - - - - - - -
23/12:00am 18.9 NW 13 24 1009.3 - 0.2 - - - - - - -
 
Date/Time
EST
Temp

°C
Wind Pressure Rain
since 9am
mm
Weather Cloud Vis
km
Sea
Height
m
Swell
Dir
 
Speed
knots
Gust
knots
hPa Trend Height
m
Period
s
Dir
22/11:30pm 19.5 NNW 9 14 1009.4 - 0.2 - - - - - - -
22/11:00pm 20.0 N 9 17 1009.3 - 0.2 - - - - - - -
22/10:30pm 19.0 NNE 8 12 1009.1 - 0.2 - - - - - - -
22/10:00pm 19.7 NNE 9 13 1009.1 - 0.2 - - - - - - -
22/09:30pm 20.2 N 12 19 1009.9 - 0.2 - - - - - - -
22/09:05pm 20.5 N 15 27 1009.7 - 0.2 - - - - - - -
22/09:00pm 20.4 N 15 23 1009.8 - 0.2 - - - - - - -
22/08:56pm 20.4 N 15 25 1009.8 - 0.2 - - - - - - -
22/08:30pm 20.4 N 16 25 1009.7 - 0.2 - - - - - - -
22/08:00pm 20.4 N 14 23 1010.0 - 0.2 - - - - - - -
22/07:31pm 20.1 N 15 25 1010.1 - 0.2 - - - - - - -
22/07:30pm 20.2 N 16 25 1010.0 - 0.2 - - - - - - -

Other Formats:

Comma delimited format used in spreadsheet applications
http://www.bom.gov.au/fwo/IDV60701/IDV60701.94857.axf

JavaScript Object Notation format (JSON) in row-major order
http://www.bom.gov.au/fwo/IDV60701/IDV60701.94857.json